createdAt,value
2022-11-17T00:00:06.534Z,17.15
2022-11-17T00:03:16.028Z,16.83
2022-11-17T00:06:22.079Z,16.98
2022-11-17T00:09:24.849Z,17.90
2022-11-17T00:12:45.858Z,15.13
2022-11-17T00:15:48.389Z,14.98
2022-11-17T00:19:09.364Z,15.02
2022-11-17T00:22:11.839Z,14.57
2022-11-17T00:25:14.473Z,14.30
2022-11-17T00:28:17.342Z,15.20
2022-11-17T00:31:38.694Z,15.02
2022-11-17T00:34:41.124Z,15.15
2022-11-17T00:38:03.630Z,15.18
2022-11-17T00:41:06.167Z,15.20
2022-11-17T00:44:09.294Z,15.00
2022-11-17T00:47:11.834Z,15.80
2022-11-17T00:50:14.527Z,21.17
2022-11-17T00:53:16.959Z,17.52
2022-11-17T00:56:19.420Z,17.48
2022-11-17T00:59:21.965Z,20.30
2022-11-17T01:02:24.401Z,22.90
2022-11-17T01:05:30.362Z,29.63
2022-11-17T01:08:36.264Z,32.25
2022-11-17T01:11:39.169Z,27.85
2022-11-17T01:14:41.775Z,19.83
2022-11-17T01:17:44.210Z,18.77
2022-11-17T01:20:46.577Z,21.00
2022-11-17T01:23:51.055Z,19.17
2022-11-17T01:26:53.568Z,18.90
2022-11-17T01:29:55.989Z,17.53
2022-11-17T01:32:58.401Z,18.60
2022-11-17T01:36:06.124Z,18.13
2022-11-17T01:39:08.724Z,17.20
2022-11-17T01:42:26.014Z,17.55
2022-11-17T01:45:28.397Z,17.67
2022-11-17T01:48:31.854Z,17.48
2022-11-17T01:51:37.357Z,17.15
2022-11-17T01:54:42.938Z,17.40
2022-11-17T01:57:51.571Z,16.67
2022-11-17T02:00:55.533Z,17.17
2022-11-17T02:03:57.944Z,18.30
2022-11-17T02:07:11.729Z,21.83
2022-11-17T02:10:14.458Z,22.58
2022-11-17T02:13:16.942Z,21.92
2022-11-17T02:16:19.392Z,19.60
2022-11-17T02:19:25.256Z,18.48
2022-11-17T02:22:47.196Z,18.23
2022-11-17T02:26:04.917Z,18.08
2022-11-17T02:29:17.946Z,23.38
2022-11-17T02:32:45.954Z,25.27
2022-11-17T02:36:07.086Z,23.05
2022-11-17T02:39:22.499Z,23.50
2022-11-17T02:42:51.509Z,15.85
2022-11-17T02:46:05.416Z,15.18
2022-11-17T02:49:27.621Z,14.27
2022-11-17T02:52:30.511Z,13.88
2022-11-17T02:55:36.132Z,12.20
2022-11-17T02:58:38.549Z,11.50
2022-11-17T03:01:50.827Z,10.77
2022-11-17T03:04:56.421Z,10.67
2022-11-17T03:08:41.632Z,10.65
2022-11-17T03:11:58.749Z,11.85
2022-11-17T03:15:23.329Z,11.43
2022-11-17T03:18:35.665Z,12.50
2022-11-17T03:22:03.909Z,12.80
2022-11-17T03:25:11.835Z,13.60
2022-11-17T03:28:17.609Z,14.40
2022-11-17T03:31:22.857Z,15.77
2022-11-17T03:34:29.370Z,15.63
2022-11-17T03:37:34.474Z,13.40
2022-11-17T03:40:40.961Z,11.02
2022-11-17T03:43:45.158Z,8.45
2022-11-17T03:46:49.359Z,9.48
2022-11-17T03:49:58.976Z,8.50
2022-11-17T03:53:04.257Z,7.53
2022-11-17T03:56:28.403Z,7.50
2022-11-17T03:59:55.249Z,6.45
2022-11-17T04:03:00.498Z,6.10
2022-11-17T04:06:02.865Z,6.10
2022-11-17T04:09:05.291Z,5.72
2022-11-17T04:12:26.318Z,6.18
2022-11-17T04:15:47.826Z,4.68
2022-11-17T04:18:54.444Z,4.43
2022-11-17T04:22:00.020Z,4.53
2022-11-17T04:25:02.529Z,4.47
2022-11-17T04:28:23.320Z,3.58
2022-11-17T04:31:30.745Z,3.65
2022-11-17T04:34:33.282Z,2.90
2022-11-17T04:37:35.701Z,3.10
2022-11-17T04:40:58.032Z,2.65
2022-11-17T04:44:01.711Z,2.72
2022-11-17T04:47:04.295Z,3.22
2022-11-17T04:50:07.315Z,2.30
2022-11-17T04:53:09.781Z,0.93
2022-11-17T04:56:13.530Z,1.73
2022-11-17T04:59:17.335Z,1.45
2022-11-17T05:02:19.927Z,1.67
2022-11-17T05:05:22.355Z,1.40
2022-11-17T05:08:24.709Z,1.30
2022-11-17T05:11:47.786Z,1.35
2022-11-17T05:14:50.629Z,1.17
2022-11-17T05:17:53.053Z,1.15
2022-11-17T05:21:02.519Z,2.00
2022-11-17T05:24:06.650Z,1.65
2022-11-17T05:27:09.158Z,1.60
2022-11-17T05:30:11.922Z,1.85
2022-11-17T05:33:14.347Z,1.90
2022-11-17T05:36:17.414Z,0.75
2022-11-17T05:39:19.777Z,1.52
2022-11-17T05:42:22.245Z,4.13
2022-11-17T05:45:24.799Z,0.60
2022-11-17T05:48:27.241Z,0.57
2022-11-17T05:51:30.181Z,0.55
2022-11-17T05:54:32.714Z,2.15
2022-11-17T05:57:35.291Z,0.87
2022-11-17T06:00:40.523Z,0.85
2022-11-17T06:03:49.239Z,0.30
2022-11-17T06:06:52.149Z,0.35
2022-11-17T06:09:55.023Z,0.20
2022-11-17T06:12:57.469Z,0.87
2022-11-17T06:16:03.399Z,0.35
2022-11-17T06:19:09.711Z,0.63
2022-11-17T06:22:13.486Z,0.40
2022-11-17T06:25:18.694Z,1.50
2022-11-17T06:28:22.786Z,2.90
2022-11-17T06:31:28.430Z,2.88
2022-11-17T06:34:32.890Z,8.75
2022-11-17T06:37:35.505Z,4.17
2022-11-17T06:40:38.077Z,1.20
2022-11-17T06:43:40.667Z,10.70
2022-11-17T06:46:48.672Z,2.10
2022-11-17T06:49:51.820Z,1.37
2022-11-17T06:52:58.693Z,3.85
2022-11-17T06:56:02.071Z,1.73
2022-11-17T06:59:04.713Z,1.30
2022-11-17T07:02:07.298Z,1.27
2022-11-17T07:05:09.963Z,1.30
2022-11-17T07:08:12.696Z,1.10
2022-11-17T07:11:16.751Z,0.90
2022-11-17T07:14:20.116Z,3.13
2022-11-17T07:17:22.723Z,3.47
2022-11-17T07:20:25.337Z,2.75
2022-11-17T07:23:28.105Z,1.10
2022-11-17T07:26:30.832Z,1.20
2022-11-17T07:29:33.546Z,0.93
2022-11-17T07:32:36.571Z,0.63
2022-11-17T07:35:39.674Z,0.90
2022-11-17T07:38:43.044Z,0.50
2022-11-17T07:41:45.831Z,0.50
2022-11-17T07:44:48.241Z,0.60
2022-11-17T07:48:02.015Z,1.05
2022-11-17T07:51:05.208Z,0.40
2022-11-17T07:54:07.877Z,0.50
2022-11-17T07:57:10.475Z,0.40
2022-11-17T08:00:14.333Z,0.45
2022-11-17T08:03:17.042Z,1.80
2022-11-17T08:06:19.831Z,2.50
2022-11-17T08:09:22.452Z,2.58
2022-11-17T08:12:24.997Z,1.60
2022-11-17T08:15:29.566Z,0.90
2022-11-17T08:18:34.436Z,0.75
2022-11-17T08:21:37.985Z,1.10
2022-11-17T08:24:40.676Z,1.15
2022-11-17T08:27:43.462Z,0.87
2022-11-17T08:30:46.088Z,0.65
2022-11-17T08:33:48.569Z,0.20
2022-11-17T08:36:52.986Z,0.68
2022-11-17T08:39:55.521Z,0.40
2022-11-17T08:43:01.392Z,0.30
2022-11-17T08:46:04.951Z,1.35
2022-11-17T08:49:07.533Z,1.00
2022-11-17T08:52:11.393Z,2.83
2022-11-17T08:55:14.919Z,1.65
2022-11-17T08:58:17.723Z,0.95
2022-11-17T09:01:20.257Z,0.30
2022-11-17T09:04:22.818Z,0.40
2022-11-17T09:07:27.484Z,0.20
2022-11-17T09:10:33.326Z,0.47
2022-11-17T09:13:37.060Z,0.88
2022-11-17T09:16:39.706Z,0.83
2022-11-17T09:19:43.642Z,0.60
2022-11-17T09:22:46.792Z,0.70
2022-11-17T09:25:49.530Z,0.93
2022-11-17T09:28:52.206Z,0.60
2022-11-17T09:31:55.025Z,0.50
2022-11-17T09:34:57.654Z,0.40
2022-11-17T09:38:03.978Z,0.40
2022-11-17T09:41:36.344Z,1.00
2022-11-17T09:44:56.900Z,0.50
2022-11-17T09:48:40.284Z,0.47
2022-11-17T09:51:45.268Z,0.70
2022-11-17T09:54:48.028Z,0.90
2022-11-17T09:58:21.142Z,0.40
2022-11-17T10:01:23.906Z,0.60
2022-11-17T10:04:33.636Z,1.52
2022-11-17T10:07:46.293Z,0.80
2022-11-17T10:10:51.107Z,0.97
2022-11-17T10:13:53.820Z,1.73
2022-11-17T10:17:03.758Z,2.38
2022-11-17T10:20:16.431Z,2.03
2022-11-17T10:23:20.457Z,1.23
2022-11-17T10:26:23.071Z,1.38
2022-11-17T10:29:25.850Z,1.60
2022-11-17T10:32:30.883Z,2.30
2022-11-17T10:35:35.757Z,1.43
2022-11-17T10:38:45.248Z,1.00
2022-11-17T10:41:50.852Z,1.15
2022-11-17T10:44:57.732Z,1.83
2022-11-17T10:48:23.297Z,0.93
2022-11-17T10:51:28.020Z,1.10
2022-11-17T10:54:35.519Z,2.58
2022-11-17T10:57:46.574Z,2.60
2022-11-17T11:00:56.109Z,2.00
2022-11-17T11:03:59.145Z,1.87
2022-11-17T11:07:11.053Z,2.43
2022-11-17T11:10:18.183Z,0.90
2022-11-17T11:13:25.966Z,0.70
2022-11-17T11:16:30.307Z,0.88
2022-11-17T11:19:34.675Z,1.60
2022-11-17T11:23:23.689Z,1.83
2022-11-17T11:26:51.434Z,1.50
2022-11-17T11:30:17.634Z,2.30
2022-11-17T11:33:38.718Z,1.10
2022-11-17T11:36:56.779Z,2.13
2022-11-17T11:40:22.191Z,1.83
2022-11-17T11:43:49.653Z,2.10
2022-11-17T11:46:58.115Z,1.02
2022-11-17T11:50:24.394Z,1.00
2022-11-17T11:53:38.035Z,0.60
2022-11-17T11:56:46.160Z,1.10
2022-11-17T12:00:16.087Z,2.83
2022-11-17T12:03:23.379Z,3.40
2022-11-17T12:06:47.482Z,2.17
2022-11-17T12:10:01.339Z,3.17
2022-11-17T12:13:05.295Z,1.98
2022-11-17T12:17:23.801Z,3.30
2022-11-17T12:21:03.202Z,2.00
2022-11-17T12:24:29.715Z,2.60
2022-11-17T12:27:34.941Z,3.17
2022-11-17T12:30:43.854Z,3.40
2022-11-17T12:33:57.515Z,3.70
2022-11-17T12:37:15.628Z,4.70
2022-11-17T12:40:49.470Z,5.03
2022-11-17T12:43:52.517Z,14.45
2022-11-17T12:47:10.230Z,10.27
2022-11-17T12:50:15.964Z,9.03
2022-11-17T12:54:12.929Z,5.22
2022-11-17T12:57:28.939Z,5.10
2022-11-17T13:00:46.207Z,6.45
2022-11-17T13:04:16.277Z,20.90
2022-11-17T13:07:22.306Z,21.83
2022-11-17T13:10:30.955Z,14.90
2022-11-17T13:13:36.776Z,20.67
2022-11-17T13:16:49.065Z,22.30
2022-11-17T13:19:59.678Z,11.20
2022-11-17T13:23:26.882Z,8.75
2022-11-17T13:26:40.251Z,7.13
2022-11-17T13:29:42.770Z,6.00
2022-11-17T13:32:45.423Z,7.10
2022-11-17T13:35:47.868Z,4.70
2022-11-17T13:38:52.456Z,5.55
2022-11-17T13:41:56.845Z,11.40
2022-11-17T13:45:03.094Z,17.83
2022-11-17T13:48:05.699Z,9.48
2022-11-17T13:51:20.499Z,8.68
2022-11-17T13:54:23.125Z,10.32
2022-11-17T13:57:28.958Z,6.63
2022-11-17T14:00:33.225Z,7.70
2022-11-17T14:03:39.754Z,8.68
2022-11-17T14:07:02.560Z,7.03
2022-11-17T14:10:20.364Z,6.38
2022-11-17T14:13:30.648Z,11.10
2022-11-17T14:16:39.440Z,10.87
2022-11-17T14:19:42.217Z,10.27
2022-11-17T14:23:02.887Z,11.25
2022-11-17T14:26:06.262Z,11.48
2022-11-17T14:29:13.644Z,8.93
2022-11-17T14:32:16.041Z,9.13
2022-11-17T14:35:21.328Z,8.02
2022-11-17T14:38:23.932Z,9.48
2022-11-17T14:41:26.446Z,9.65
2022-11-17T14:44:29.012Z,5.97
2022-11-17T14:47:31.879Z,6.07
2022-11-17T14:50:34.576Z,6.88
2022-11-17T14:53:41.945Z,6.63
2022-11-17T14:56:44.897Z,5.13
2022-11-17T14:59:47.756Z,4.63
2022-11-17T15:02:51.188Z,20.27
2022-11-17T15:05:53.700Z,11.18
2022-11-17T15:09:01.583Z,13.70
2022-11-17T15:12:04.306Z,10.55
2022-11-17T15:15:07.535Z,9.37
2022-11-17T15:18:12.962Z,22.90
2022-11-17T15:21:17.205Z,24.88
2022-11-17T15:24:19.603Z,22.55
2022-11-17T15:27:22.095Z,17.33
2022-11-17T15:30:24.616Z,15.60
2022-11-17T15:33:27.050Z,18.70
2022-11-17T15:36:31.916Z,18.92
2022-11-17T15:39:34.443Z,19.45
2022-11-17T15:42:37.299Z,27.20
2022-11-17T15:45:39.974Z,23.92
2022-11-17T15:48:44.213Z,20.23
2022-11-17T15:51:46.530Z,20.05
2022-11-17T15:54:48.970Z,17.40
2022-11-17T15:57:53.344Z,10.00
2022-11-17T16:01:28.030Z,8.68
2022-11-17T16:04:30.604Z,14.50
2022-11-17T16:07:33.163Z,9.48
2022-11-17T16:10:35.763Z,12.90
2022-11-17T16:13:38.586Z,10.63
2022-11-17T16:16:41.102Z,10.00
2022-11-17T16:19:43.558Z,12.18
2022-11-17T16:22:45.950Z,13.00
2022-11-17T16:25:48.647Z,16.37
2022-11-17T16:28:57.282Z,18.40
2022-11-17T16:31:59.710Z,14.48
2022-11-17T16:35:02.288Z,17.98
2022-11-17T16:38:04.720Z,21.95
2022-11-17T16:41:07.226Z,19.90
2022-11-17T16:44:12.302Z,14.60
2022-11-17T16:47:15.016Z,13.13
2022-11-17T16:50:17.424Z,14.02
2022-11-17T16:53:19.938Z,16.10
2022-11-17T16:56:22.553Z,20.52
2022-11-17T16:59:25.101Z,29.15
2022-11-17T17:02:27.887Z,28.23
2022-11-17T17:05:30.826Z,21.57
2022-11-17T17:08:34.394Z,20.77
2022-11-17T17:11:37.742Z,23.38
2022-11-17T17:14:40.102Z,36.13
2022-11-17T17:17:42.504Z,38.80
2022-11-17T17:20:52.481Z,27.37
2022-11-17T17:23:55.651Z,24.93
2022-11-17T17:26:58.160Z,23.92
2022-11-17T17:30:01.477Z,16.42
2022-11-17T17:33:04.077Z,16.67
2022-11-17T17:36:18.327Z,15.70
2022-11-17T17:39:20.842Z,9.52
2022-11-17T17:42:23.340Z,9.30
2022-11-17T17:45:26.042Z,10.43
2022-11-17T17:48:31.015Z,8.90
2022-11-17T17:51:37.265Z,14.05
2022-11-17T17:54:39.946Z,20.80
2022-11-17T17:57:42.334Z,15.93
2022-11-17T18:00:44.872Z,12.30
2022-11-17T18:03:48.868Z,8.77
2022-11-17T18:06:51.706Z,9.70
2022-11-17T18:09:54.263Z,9.38
2022-11-17T18:12:56.817Z,12.70
2022-11-17T18:16:02.940Z,13.77
2022-11-17T18:19:08.507Z,14.70
2022-11-17T18:22:11.875Z,14.38
2022-11-17T18:25:17.859Z,14.25
2022-11-17T18:28:20.891Z,14.57
2022-11-17T18:31:25.704Z,8.87
2022-11-17T18:34:28.447Z,9.63
2022-11-17T18:37:31.749Z,7.70
2022-11-17T18:40:34.691Z,8.63
2022-11-17T18:43:38.005Z,5.80
2022-11-17T18:46:42.309Z,6.80
2022-11-17T18:49:45.483Z,7.60
2022-11-17T18:52:48.154Z,6.85
2022-11-17T18:55:50.814Z,6.00
2022-11-17T18:58:53.696Z,5.53
2022-11-17T19:01:56.510Z,39.85
2022-11-17T19:04:59.159Z,18.10
2022-11-17T19:08:01.822Z,7.88
2022-11-17T19:11:07.051Z,7.67
2022-11-17T19:14:09.508Z,8.10
2022-11-17T19:17:12.415Z,9.95
2022-11-17T19:20:15.756Z,13.60
2022-11-17T19:23:18.322Z,19.73
2022-11-17T19:26:24.207Z,13.80
2022-11-17T19:29:26.962Z,15.90
2022-11-17T19:32:29.558Z,11.80
2022-11-17T19:35:32.235Z,10.90
2022-11-17T19:38:38.333Z,12.18
2022-11-17T19:41:41.048Z,12.00
2022-11-17T19:44:44.146Z,11.23
2022-11-17T19:47:47.111Z,10.60
2022-11-17T19:50:54.563Z,9.57
2022-11-17T19:54:02.016Z,9.03
2022-11-17T19:57:04.684Z,8.60
2022-11-17T20:00:08.121Z,6.55
2022-11-17T20:03:15.847Z,6.80
2022-11-17T20:06:21.426Z,5.90
2022-11-17T20:09:25.632Z,6.90
2022-11-17T20:12:28.269Z,10.07
2022-11-17T20:15:35.008Z,8.90
2022-11-17T20:18:37.821Z,8.23
2022-11-17T20:21:40.651Z,8.07
2022-11-17T20:24:43.957Z,6.53
2022-11-17T20:27:46.638Z,7.07
2022-11-17T20:30:49.347Z,6.18
2022-11-17T20:33:56.544Z,8.20
2022-11-17T20:36:59.415Z,7.90
2022-11-17T20:40:02.107Z,7.35
2022-11-17T20:43:04.749Z,6.00
2022-11-17T20:46:07.416Z,6.43
2022-11-17T20:49:10.286Z,7.10
2022-11-17T20:52:23.127Z,6.97
2022-11-17T20:55:25.814Z,8.25
2022-11-17T20:58:29.968Z,6.28
2022-11-17T21:01:32.824Z,6.73
2022-11-17T21:04:35.505Z,7.05
2022-11-17T21:07:38.257Z,6.20
2022-11-17T21:10:41.029Z,6.70
2022-11-17T21:13:44.232Z,7.47
2022-11-17T21:16:46.676Z,10.07
2022-11-17T21:19:49.028Z,6.75
2022-11-17T21:22:51.486Z,6.55
2022-11-17T21:25:54.360Z,9.43
2022-11-17T21:29:00.438Z,10.07
2022-11-17T21:32:06.443Z,8.40
2022-11-17T21:35:09.171Z,7.40
2022-11-17T21:38:11.624Z,8.40
2022-11-17T21:41:22.235Z,7.20
2022-11-17T21:44:24.635Z,7.18
2022-11-17T21:47:27.036Z,6.70
2022-11-17T21:50:29.418Z,6.87
2022-11-17T21:53:32.027Z,7.25
2022-11-17T21:56:34.740Z,8.18
2022-11-17T21:59:37.340Z,7.85
2022-11-17T22:02:39.801Z,7.50
2022-11-17T22:05:42.212Z,7.32
2022-11-17T22:08:45.752Z,6.95
2022-11-17T22:11:48.120Z,6.20
2022-11-17T22:14:50.675Z,6.43
2022-11-17T22:17:53.121Z,6.90
2022-11-17T22:20:55.558Z,6.53
2022-11-17T22:23:58.417Z,5.78
2022-11-17T22:27:00.905Z,5.47
2022-11-17T22:30:03.586Z,5.50
2022-11-17T22:33:06.100Z,5.57
2022-11-17T22:36:10.261Z,5.43
2022-11-17T22:39:13.037Z,5.35
2022-11-17T22:42:18.720Z,6.50
2022-11-17T22:45:21.308Z,7.13
2022-11-17T22:48:24.099Z,6.30
2022-11-17T22:51:45.269Z,5.60
2022-11-17T22:54:47.668Z,6.50
2022-11-17T22:57:50.768Z,6.32
2022-11-17T23:00:53.284Z,6.75
2022-11-17T23:03:55.717Z,7.10
2022-11-17T23:06:58.213Z,6.00
2022-11-17T23:10:03.751Z,5.38
2022-11-17T23:13:06.247Z,6.05
2022-11-17T23:16:08.994Z,6.05
2022-11-17T23:19:13.570Z,6.47
2022-11-17T23:22:16.016Z,6.68
2022-11-17T23:25:18.478Z,6.82
2022-11-17T23:28:21.225Z,5.87
2022-11-17T23:31:23.730Z,6.03
2022-11-17T23:34:27.650Z,5.90
2022-11-17T23:37:30.184Z,6.40
2022-11-17T23:40:32.648Z,6.63
2022-11-17T23:43:35.472Z,6.73
2022-11-17T23:46:38.027Z,6.35
2022-11-17T23:49:40.519Z,5.70
2022-11-17T23:52:43.110Z,6.18
2022-11-17T23:55:54.438Z,6.30
2022-11-17T23:58:56.997Z,5.95
